Accueil
METAR-TAF:

METAR-TAF

Aéroports :

Madison, Dakota du Sud, États-Unis

latitude: 44-00-59N, longitude: 097-05-08W, altitude: 524 m

Observation

Le bulletin a été fait il y a 24 minutes, à 01:40 UTC
Vent 7 kt de nord/nord-ouest
Température -15°C
Humidité 85%
Pression 1037 hPa
Visibilité: 16.1 km
Ciel clair

METAR: KMDS 120140Z AUTO 33007KT 10SM CLR M15/M17 A3061 RMK AO2

Heure: 19:04 (02:04 UTC)


TAF: absent

Observations et prévisions météorologiques de plus de 4000 aéroports (messages METAR et TAF).

Les stations disponibles sont représentées par des disques jaunes et rouges sur la carte.

Passer la souris dessus pour voir le nom de la station.

Cliquer dessus pour voir les observations et prévisions météorologiques.

Pour changer de carte: cliquez sur les boutons verts avec une croix noire pour zoomer, sur le bouton vert avec un tiret pour effectuer un zoom arrière, ou sur les flèches vertes pour les cartes adjacentes.


METAR-TAF: